sensor_id;sensor_type;location;lat;lon;timestamp;P1;durP1;ratioP1;P2;durP2;ratioP2
27039;SDS011;14589;51.578;7.306;2023-07-22T00:02:05;4.75;;;2.80;;
27039;SDS011;14589;51.578;7.306;2023-07-22T00:04:36;5.15;;;2.50;;
27039;SDS011;14589;51.578;7.306;2023-07-22T00:07:06;6.43;;;3.25;;
27039;SDS011;14589;51.578;7.306;2023-07-22T00:09:37;4.53;;;2.67;;
27039;SDS011;14589;51.578;7.306;2023-07-22T00:12:08;6.65;;;3.42;;
27039;SDS011;14589;51.578;7.306;2023-07-22T00:14:40;6.57;;;3.65;;
27039;SDS011;14589;51.578;7.306;2023-07-22T00:17:11;5.55;;;3.33;;
27039;SDS011;14589;51.578;7.306;2023-07-22T00:19:41;8.10;;;3.40;;
27039;SDS011;14589;51.578;7.306;2023-07-22T00:22:12;8.27;;;3.25;;
27039;SDS011;14589;51.578;7.306;2023-07-22T00:24:45;5.03;;;2.42;;
27039;SDS011;14589;51.578;7.306;2023-07-22T00:27:18;6.10;;;2.97;;
27039;SDS011;14589;51.578;7.306;2023-07-22T00:29:52;7.88;;;3.17;;
27039;SDS011;14589;51.578;7.306;2023-07-22T00:32:25;6.97;;;3.00;;
27039;SDS011;14589;51.578;7.306;2023-07-22T00:34:58;4.88;;;3.08;;
27039;SDS011;14589;51.578;7.306;2023-07-22T00:37:28;4.85;;;2.75;;
27039;SDS011;14589;51.578;7.306;2023-07-22T00:39:58;6.60;;;3.75;;
27039;SDS011;14589;51.578;7.306;2023-07-22T00:42:29;5.65;;;3.28;;
27039;SDS011;14589;51.578;7.306;2023-07-22T00:44:59;7.07;;;3.60;;
27039;SDS011;14589;51.578;7.306;2023-07-22T00:47:30;5.63;;;2.90;;
27039;SDS011;14589;51.578;7.306;2023-07-22T00:52:33;6.07;;;2.90;;
27039;SDS011;14589;51.578;7.306;2023-07-22T00:55:04;6.40;;;3.22;;
27039;SDS011;14589;51.578;7.306;2023-07-22T00:57:36;7.72;;;3.08;;
27039;SDS011;14589;51.578;7.306;2023-07-22T01:00:07;8.38;;;3.75;;
27039;SDS011;14589;51.578;7.306;2023-07-22T01:02:41;7.97;;;3.63;;
27039;SDS011;14589;51.578;7.306;2023-07-22T01:05:13;5.00;;;3.00;;
27039;SDS011;14589;51.578;7.306;2023-07-22T01:07:43;6.82;;;3.67;;
27039;SDS011;14589;51.578;7.306;2023-07-22T01:10:14;9.63;;;3.78;;
27039;SDS011;14589;51.578;7.306;2023-07-22T01:12:44;4.82;;;3.05;;
27039;SDS011;14589;51.578;7.306;2023-07-22T01:15:15;6.03;;;3.40;;
27039;SDS011;14589;51.578;7.306;2023-07-22T01:17:46;9.70;;;3.30;;
27039;SDS011;14589;51.578;7.306;2023-07-22T01:20:17;6.72;;;3.40;;
27039;SDS011;14589;51.578;7.306;2023-07-22T01:22:52;6.78;;;3.58;;
27039;SDS011;14589;51.578;7.306;2023-07-22T01:25:23;4.97;;;3.20;;
27039;SDS011;14589;51.578;7.306;2023-07-22T01:27:55;6.05;;;4.10;;
27039;SDS011;14589;51.578;7.306;2023-07-22T01:30:26;5.88;;;3.15;;
27039;SDS011;14589;51.578;7.306;2023-07-22T01:32:57;5.85;;;3.15;;
27039;SDS011;14589;51.578;7.306;2023-07-22T01:35:27;4.57;;;3.22;;
27039;SDS011;14589;51.578;7.306;2023-07-22T01:37:58;8.65;;;3.60;;
27039;SDS011;14589;51.578;7.306;2023-07-22T01:40:28;7.18;;;3.15;;
27039;SDS011;14589;51.578;7.306;2023-07-22T01:42:59;5.80;;;2.92;;
27039;SDS011;14589;51.578;7.306;2023-07-22T01:45:29;4.95;;;2.10;;
27039;SDS011;14589;51.578;7.306;2023-07-22T01:48:00;6.93;;;4.18;;
27039;SDS011;14589;51.578;7.306;2023-07-22T01:50:30;7.53;;;4.30;;
27039;SDS011;14589;51.578;7.306;2023-07-22T01:53:01;5.18;;;3.05;;
27039;SDS011;14589;51.578;7.306;2023-07-22T01:55:31;7.05;;;4.40;;
27039;SDS011;14589;51.578;7.306;2023-07-22T01:58:03;5.22;;;3.75;;
27039;SDS011;14589;51.578;7.306;2023-07-22T02:00:33;6.60;;;3.78;;
27039;SDS011;14589;51.578;7.306;2023-07-22T02:03:04;8.57;;;4.15;;
27039;SDS011;14589;51.578;7.306;2023-07-22T02:05:34;5.80;;;3.63;;
27039;SDS011;14589;51.578;7.306;2023-07-22T02:08:05;6.43;;;2.97;;
27039;SDS011;14589;51.578;7.306;2023-07-22T02:10:35;5.80;;;4.38;;
27039;SDS011;14589;51.578;7.306;2023-07-22T02:13:06;5.88;;;3.08;;
27039;SDS011;14589;51.578;7.306;2023-07-22T02:15:36;5.80;;;3.22;;
27039;SDS011;14589;51.578;7.306;2023-07-22T02:18:07;6.10;;;2.78;;
27039;SDS011;14589;51.578;7.306;2023-07-22T02:20:37;6.80;;;3.33;;
27039;SDS011;14589;51.578;7.306;2023-07-22T02:23:08;6.20;;;2.53;;
27039;SDS011;14589;51.578;7.306;2023-07-22T02:25:40;7.15;;;3.20;;
27039;SDS011;14589;51.578;7.306;2023-07-22T02:28:10;4.30;;;1.73;;
27039;SDS011;14589;51.578;7.306;2023-07-22T02:30:40;7.00;;;2.95;;
27039;SDS011;14589;51.578;7.306;2023-07-22T02:33:11;7.00;;;3.13;;
27039;SDS011;14589;51.578;7.306;2023-07-22T02:35:42;4.55;;;2.60;;
27039;SDS011;14589;51.578;7.306;2023-07-22T02:38:12;4.43;;;2.47;;
27039;SDS011;14589;51.578;7.306;2023-07-22T02:40:44;5.63;;;3.05;;
27039;SDS011;14589;51.578;7.306;2023-07-22T02:43:14;6.18;;;2.53;;
27039;SDS011;14589;51.578;7.306;2023-07-22T02:45:45;7.38;;;3.15;;
27039;SDS011;14589;51.578;7.306;2023-07-22T02:48:16;5.03;;;2.40;;
27039;SDS011;14589;51.578;7.306;2023-07-22T02:50:46;6.57;;;2.83;;
27039;SDS011;14589;51.578;7.306;2023-07-22T02:53:16;4.00;;;2.20;;
27039;SDS011;14589;51.578;7.306;2023-07-22T02:55:47;5.20;;;2.85;;
27039;SDS011;14589;51.578;7.306;2023-07-22T02:58:18;5.30;;;3.03;;
27039;SDS011;14589;51.578;7.306;2023-07-22T03:00:48;6.57;;;2.95;;
27039;SDS011;14589;51.578;7.306;2023-07-22T03:03:19;5.55;;;3.00;;
27039;SDS011;14589;51.578;7.306;2023-07-22T03:05:49;6.70;;;2.67;;
27039;SDS011;14589;51.578;7.306;2023-07-22T03:08:19;4.55;;;2.28;;
27039;SDS011;14589;51.578;7.306;2023-07-22T03:10:50;4.55;;;2.67;;
27039;SDS011;14589;51.578;7.306;2023-07-22T03:13:20;4.45;;;3.22;;
27039;SDS011;14589;51.578;7.306;2023-07-22T03:15:51;4.10;;;2.67;;
27039;SDS011;14589;51.578;7.306;2023-07-22T03:18:21;4.30;;;2.92;;
27039;SDS011;14589;51.578;7.306;2023-07-22T03:20:52;5.00;;;2.53;;
27039;SDS011;14589;51.578;7.306;2023-07-22T03:23:22;5.85;;;3.03;;
27039;SDS011;14589;51.578;7.306;2023-07-22T03:25:53;4.47;;;2.47;;
27039;SDS011;14589;51.578;7.306;2023-07-22T03:28:23;5.68;;;3.35;;
27039;SDS011;14589;51.578;7.306;2023-07-22T03:30:55;5.60;;;2.65;;
27039;SDS011;14589;51.578;7.306;2023-07-22T03:33:26;4.57;;;2.80;;
27039;SDS011;14589;51.578;7.306;2023-07-22T03:35:56;5.80;;;2.67;;
27039;SDS011;14589;51.578;7.306;2023-07-22T03:38:27;5.82;;;2.50;;
27039;SDS011;14589;51.578;7.306;2023-07-22T03:40:57;4.38;;;1.73;;
27039;SDS011;14589;51.578;7.306;2023-07-22T03:43:28;6.90;;;3.40;;
27039;SDS011;14589;51.578;7.306;2023-07-22T03:45:58;6.63;;;2.85;;
27039;SDS011;14589;51.578;7.306;2023-07-22T03:48:29;6.50;;;3.30;;
27039;SDS011;14589;51.578;7.306;2023-07-22T03:50:59;7.45;;;3.33;;
27039;SDS011;14589;51.578;7.306;2023-07-22T03:53:29;6.90;;;2.63;;
27039;SDS011;14589;51.578;7.306;2023-07-22T03:56:00;6.00;;;3.13;;
27039;SDS011;14589;51.578;7.306;2023-07-22T03:58:30;6.45;;;2.58;;
27039;SDS011;14589;51.578;7.306;2023-07-22T04:01:00;5.32;;;2.20;;
27039;SDS011;14589;51.578;7.306;2023-07-22T04:03:31;5.57;;;2.97;;
27039;SDS011;14589;51.578;7.306;2023-07-22T04:06:01;5.93;;;2.97;;
27039;SDS011;14589;51.578;7.306;2023-07-22T04:08:31;7.40;;;3.17;;
27039;SDS011;14589;51.578;7.306;2023-07-22T04:11:02;8.55;;;3.70;;
27039;SDS011;14589;51.578;7.306;2023-07-22T04:13:32;6.55;;;2.97;;
27039;SDS011;14589;51.578;7.306;2023-07-22T04:16:03;5.38;;;2.42;;
27039;SDS011;14589;51.578;7.306;2023-07-22T04:18:33;5.93;;;2.28;;
27039;SDS011;14589;51.578;7.306;2023-07-22T04:21:04;6.10;;;2.90;;
27039;SDS011;14589;51.578;7.306;2023-07-22T04:23:35;5.97;;;2.72;;
27039;SDS011;14589;51.578;7.306;2023-07-22T04:26:05;4.75;;;2.40;;
27039;SDS011;14589;51.578;7.306;2023-07-22T04:28:37;4.07;;;1.95;;
27039;SDS011;14589;51.578;7.306;2023-07-22T04:31:09;6.65;;;2.47;;
27039;SDS011;14589;51.578;7.306;2023-07-22T04:33:39;5.10;;;2.15;;
27039;SDS011;14589;51.578;7.306;2023-07-22T04:36:11;5.80;;;3.33;;
27039;SDS011;14589;51.578;7.306;2023-07-22T04:38:41;5.00;;;2.22;;
27039;SDS011;14589;51.578;7.306;2023-07-22T04:41:12;8.07;;;3.45;;
27039;SDS011;14589;51.578;7.306;2023-07-22T04:43:42;6.07;;;3.10;;
27039;SDS011;14589;51.578;7.306;2023-07-22T04:46:13;5.22;;;2.90;;
27039;SDS011;14589;51.578;7.306;2023-07-22T04:48:43;5.10;;;3.13;;
27039;SDS011;14589;51.578;7.306;2023-07-22T04:51:14;4.15;;;2.40;;
27039;SDS011;14589;51.578;7.306;2023-07-22T04:53:44;6.53;;;3.22;;
27039;SDS011;14589;51.578;7.306;2023-07-22T04:56:14;6.43;;;3.15;;
27039;SDS011;14589;51.578;7.306;2023-07-22T04:58:45;5.57;;;3.28;;
27039;SDS011;14589;51.578;7.306;2023-07-22T05:01:15;4.78;;;2.63;;
27039;SDS011;14589;51.578;7.306;2023-07-22T05:03:46;4.03;;;1.83;;
27039;SDS011;14589;51.578;7.306;2023-07-22T05:06:16;6.60;;;2.33;;
27039;SDS011;14589;51.578;7.306;2023-07-22T05:08:46;7.10;;;3.47;;
27039;SDS011;14589;51.578;7.306;2023-07-22T05:11:17;6.68;;;2.63;;
27039;SDS011;14589;51.578;7.306;2023-07-22T05:13:48;6.78;;;4.03;;
27039;SDS011;14589;51.578;7.306;2023-07-22T05:16:19;7.30;;;3.25;;
27039;SDS011;14589;51.578;7.306;2023-07-22T05:21:21;3.95;;;2.08;;
27039;SDS011;14589;51.578;7.306;2023-07-22T05:23:51;5.30;;;2.90;;
27039;SDS011;14589;51.578;7.306;2023-07-22T05:26:22;7.20;;;2.20;;
27039;SDS011;14589;51.578;7.306;2023-07-22T05:28:52;5.95;;;2.45;;
27039;SDS011;14589;51.578;7.306;2023-07-22T05:31:23;5.68;;;3.10;;
27039;SDS011;14589;51.578;7.306;2023-07-22T05:33:53;6.10;;;2.15;;
27039;SDS011;14589;51.578;7.306;2023-07-22T05:36:23;7.18;;;2.78;;
27039;SDS011;14589;51.578;7.306;2023-07-22T05:38:54;6.38;;;2.92;;
27039;SDS011;14589;51.578;7.306;2023-07-22T05:41:25;5.55;;;2.50;;
27039;SDS011;14589;51.578;7.306;2023-07-22T05:43:56;7.72;;;2.47;;
27039;SDS011;14589;51.578;7.306;2023-07-22T05:46:26;5.90;;;3.00;;
27039;SDS011;14589;51.578;7.306;2023-07-22T05:48:57;6.10;;;3.38;;
27039;SDS011;14589;51.578;7.306;2023-07-22T05:51:27;5.40;;;2.17;;
27039;SDS011;14589;51.578;7.306;2023-07-22T05:53:57;5.70;;;2.83;;
27039;SDS011;14589;51.578;7.306;2023-07-22T05:56:28;5.07;;;1.95;;
27039;SDS011;14589;51.578;7.306;2023-07-22T05:58:58;6.03;;;2.38;;
27039;SDS011;14589;51.578;7.306;2023-07-22T06:01:29;7.07;;;2.33;;
27039;SDS011;14589;51.578;7.306;2023-07-22T06:03:59;6.35;;;1.90;;
27039;SDS011;14589;51.578;7.306;2023-07-22T06:06:29;4.70;;;1.73;;
27039;SDS011;14589;51.578;7.306;2023-07-22T06:09:00;7.70;;;3.28;;
27039;SDS011;14589;51.578;7.306;2023-07-22T06:11:31;4.57;;;3.38;;
27039;SDS011;14589;51.578;7.306;2023-07-22T06:14:01;4.97;;;2.78;;
27039;SDS011;14589;51.578;7.306;2023-07-22T06:16:32;4.28;;;2.33;;
27039;SDS011;14589;51.578;7.306;2023-07-22T06:19:03;5.68;;;3.10;;
27039;SDS011;14589;51.578;7.306;2023-07-22T06:21:33;6.63;;;2.95;;
27039;SDS011;14589;51.578;7.306;2023-07-22T06:24:04;8.13;;;3.40;;
27039;SDS011;14589;51.578;7.306;2023-07-22T06:26:35;5.95;;;3.35;;
27039;SDS011;14589;51.578;7.306;2023-07-22T06:29:05;10.00;;;3.03;;
27039;SDS011;14589;51.578;7.306;2023-07-22T06:31:35;7.47;;;2.35;;
27039;SDS011;14589;51.578;7.306;2023-07-22T06:34:06;6.20;;;3.58;;
27039;SDS011;14589;51.578;7.306;2023-07-22T06:36:36;9.88;;;3.40;;
27039;SDS011;14589;51.578;7.306;2023-07-22T06:39:06;5.05;;;3.05;;
27039;SDS011;14589;51.578;7.306;2023-07-22T06:41:37;6.78;;;2.50;;
27039;SDS011;14589;51.578;7.306;2023-07-22T06:44:07;5.05;;;2.90;;
27039;SDS011;14589;51.578;7.306;2023-07-22T06:46:37;5.53;;;2.75;;
27039;SDS011;14589;51.578;7.306;2023-07-22T06:49:08;6.68;;;2.85;;
27039;SDS011;14589;51.578;7.306;2023-07-22T06:51:38;9.20;;;2.47;;
27039;SDS011;14589;51.578;7.306;2023-07-22T06:54:09;5.93;;;2.83;;
27039;SDS011;14589;51.578;7.306;2023-07-22T06:56:39;8.23;;;4.28;;
27039;SDS011;14589;51.578;7.306;2023-07-22T06:59:09;5.25;;;2.45;;
27039;SDS011;14589;51.578;7.306;2023-07-22T07:01:40;8.50;;;3.22;;
27039;SDS011;14589;51.578;7.306;2023-07-22T07:04:11;6.57;;;2.83;;
27039;SDS011;14589;51.578;7.306;2023-07-22T07:06:41;5.13;;;3.28;;
27039;SDS011;14589;51.578;7.306;2023-07-22T07:09:12;8.82;;;3.05;;
27039;SDS011;14589;51.578;7.306;2023-07-22T07:11:42;7.05;;;3.40;;
27039;SDS011;14589;51.578;7.306;2023-07-22T07:14:13;5.18;;;2.80;;
27039;SDS011;14589;51.578;7.306;2023-07-22T07:16:43;5.95;;;3.63;;
27039;SDS011;14589;51.578;7.306;2023-07-22T07:19:14;5.22;;;3.00;;
27039;SDS011;14589;51.578;7.306;2023-07-22T07:21:44;6.95;;;3.75;;
27039;SDS011;14589;51.578;7.306;2023-07-22T07:24:15;6.60;;;3.35;;
27039;SDS011;14589;51.578;7.306;2023-07-22T07:26:45;10.50;;;3.83;;
27039;SDS011;14589;51.578;7.306;2023-07-22T07:29:16;6.25;;;3.13;;
27039;SDS011;14589;51.578;7.306;2023-07-22T07:31:46;8.15;;;3.40;;
27039;SDS011;14589;51.578;7.306;2023-07-22T07:34:17;6.00;;;4.05;;
27039;SDS011;14589;51.578;7.306;2023-07-22T07:36:47;5.68;;;2.80;;
27039;SDS011;14589;51.578;7.306;2023-07-22T07:39:18;5.95;;;3.53;;
27039;SDS011;14589;51.578;7.306;2023-07-22T07:41:49;6.68;;;3.85;;
27039;SDS011;14589;51.578;7.306;2023-07-22T07:44:19;8.02;;;3.42;;
27039;SDS011;14589;51.578;7.306;2023-07-22T07:46:49;6.05;;;3.13;;
27039;SDS011;14589;51.578;7.306;2023-07-22T07:49:20;5.18;;;2.30;;
27039;SDS011;14589;51.578;7.306;2023-07-22T07:51:50;7.07;;;4.03;;
27039;SDS011;14589;51.578;7.306;2023-07-22T07:54:21;5.45;;;3.55;;
27039;SDS011;14589;51.578;7.306;2023-07-22T07:56:51;6.20;;;3.13;;
27039;SDS011;14589;51.578;7.306;2023-07-22T07:59:21;5.68;;;3.08;;
27039;SDS011;14589;51.578;7.306;2023-07-22T08:01:52;5.78;;;2.78;;
27039;SDS011;14589;51.578;7.306;2023-07-22T08:04:23;5.72;;;3.08;;
27039;SDS011;14589;51.578;7.306;2023-07-22T08:06:53;5.68;;;3.00;;
27039;SDS011;14589;51.578;7.306;2023-07-22T08:09:24;6.28;;;3.83;;
27039;SDS011;14589;51.578;7.306;2023-07-22T08:11:54;6.60;;;3.60;;
27039;SDS011;14589;51.578;7.306;2023-07-22T08:14:24;6.88;;;3.40;;
27039;SDS011;14589;51.578;7.306;2023-07-22T08:16:55;5.47;;;2.97;;
27039;SDS011;14589;51.578;7.306;2023-07-22T08:19:25;6.10;;;3.60;;
27039;SDS011;14589;51.578;7.306;2023-07-22T08:21:56;7.70;;;4.45;;
27039;SDS011;14589;51.578;7.306;2023-07-22T08:24:26;6.15;;;3.60;;
27039;SDS011;14589;51.578;7.306;2023-07-22T08:26:57;8.35;;;3.92;;
27039;SDS011;14589;51.578;7.306;2023-07-22T08:29:27;7.82;;;3.72;;
27039;SDS011;14589;51.578;7.306;2023-07-22T08:31:57;6.00;;;3.58;;
27039;SDS011;14589;51.578;7.306;2023-07-22T08:34:28;6.28;;;3.70;;
27039;SDS011;14589;51.578;7.306;2023-07-22T08:36:58;8.00;;;3.85;;
27039;SDS011;14589;51.578;7.306;2023-07-22T08:39:28;8.75;;;3.78;;
27039;SDS011;14589;51.578;7.306;2023-07-22T08:41:59;8.80;;;3.67;;
27039;SDS011;14589;51.578;7.306;2023-07-22T08:44:33;7.63;;;5.15;;
27039;SDS011;14589;51.578;7.306;2023-07-22T08:47:08;6.05;;;3.28;;
27039;SDS011;14589;51.578;7.306;2023-07-22T08:49:45;6.80;;;3.70;;
27039;SDS011;14589;51.578;7.306;2023-07-22T08:52:19;8.32;;;3.80;;
27039;SDS011;14589;51.578;7.306;2023-07-22T08:54:49;6.53;;;3.65;;
27039;SDS011;14589;51.578;7.306;2023-07-22T08:57:20;8.35;;;4.63;;
27039;SDS011;14589;51.578;7.306;2023-07-22T08:59:51;6.63;;;4.47;;
27039;SDS011;14589;51.578;7.306;2023-07-22T09:02:22;8.85;;;4.78;;
27039;SDS011;14589;51.578;7.306;2023-07-22T09:04:57;5.90;;;3.40;;
27039;SDS011;14589;51.578;7.306;2023-07-22T09:07:28;6.57;;;3.45;;
27039;SDS011;14589;51.578;7.306;2023-07-22T09:09:59;5.47;;;3.00;;
27039;SDS011;14589;51.578;7.306;2023-07-22T09:12:30;5.63;;;3.40;;
27039;SDS011;14589;51.578;7.306;2023-07-22T09:15:01;5.88;;;2.90;;
27039;SDS011;14589;51.578;7.306;2023-07-22T09:17:32;4.70;;;2.35;;
27039;SDS011;14589;51.578;7.306;2023-07-22T09:20:02;6.13;;;3.22;;
27039;SDS011;14589;51.578;7.306;2023-07-22T09:22:34;6.30;;;3.33;;
27039;SDS011;14589;51.578;7.306;2023-07-22T09:25:14;3.90;;;2.22;;
27039;SDS011;14589;51.578;7.306;2023-07-22T09:27:47;4.72;;;2.85;;
27039;SDS011;14589;51.578;7.306;2023-07-22T09:30:26;6.05;;;3.25;;
27039;SDS011;14589;51.578;7.306;2023-07-22T09:33:01;5.25;;;3.03;;
27039;SDS011;14589;51.578;7.306;2023-07-22T09:38:22;4.78;;;3.45;;
27039;SDS011;14589;51.578;7.306;2023-07-22T09:43:24;4.73;;;3.03;;
27039;SDS011;14589;51.578;7.306;2023-07-22T09:45:55;5.63;;;4.00;;
27039;SDS011;14589;51.578;7.306;2023-07-22T09:48:25;4.88;;;2.88;;
27039;SDS011;14589;51.578;7.306;2023-07-22T09:50:56;4.55;;;2.88;;
27039;SDS011;14589;51.578;7.306;2023-07-22T09:53:28;3.65;;;2.83;;
27039;SDS011;14589;51.578;7.306;2023-07-22T09:56:02;5.03;;;2.55;;
27039;SDS011;14589;51.578;7.306;2023-07-22T09:58:34;5.57;;;2.75;;
27039;SDS011;14589;51.578;7.306;2023-07-22T10:01:06;4.38;;;2.45;;
27039;SDS011;14589;51.578;7.306;2023-07-22T10:03:37;5.93;;;2.70;;
27039;SDS011;14589;51.578;7.306;2023-07-22T10:06:10;5.88;;;1.85;;
27039;SDS011;14589;51.578;7.306;2023-07-22T10:08:43;7.15;;;2.97;;
27039;SDS011;14589;51.578;7.306;2023-07-22T10:11:15;4.30;;;2.47;;
27039;SDS011;14589;51.578;7.306;2023-07-22T10:13:46;5.10;;;2.33;;
27039;SDS011;14589;51.578;7.306;2023-07-22T10:16:16;3.05;;;2.00;;
27039;SDS011;14589;51.578;7.306;2023-07-22T10:18:48;3.22;;;2.53;;
27039;SDS011;14589;51.578;7.306;2023-07-22T10:21:19;4.43;;;2.60;;
27039;SDS011;14589;51.578;7.306;2023-07-22T10:23:50;4.13;;;1.52;;
27039;SDS011;14589;51.578;7.306;2023-07-22T10:26:21;3.28;;;1.52;;
27039;SDS011;14589;51.578;7.306;2023-07-22T10:28:52;4.15;;;1.90;;
27039;SDS011;14589;51.578;7.306;2023-07-22T10:31:23;3.53;;;1.80;;
27039;SDS011;14589;51.578;7.306;2023-07-22T10:33:53;2.78;;;1.85;;
27039;SDS011;14589;51.578;7.306;2023-07-22T10:36:28;5.13;;;2.17;;
27039;SDS011;14589;51.578;7.306;2023-07-22T10:39:00;3.30;;;1.95;;
27039;SDS011;14589;51.578;7.306;2023-07-22T10:41:32;3.75;;;2.08;;
27039;SDS011;14589;51.578;7.306;2023-07-22T10:44:03;5.25;;;2.72;;
27039;SDS011;14589;51.578;7.306;2023-07-22T10:46:36;3.92;;;1.95;;
27039;SDS011;14589;51.578;7.306;2023-07-22T10:49:14;2.85;;;1.75;;
27039;SDS011;14589;51.578;7.306;2023-07-22T10:51:49;5.65;;;2.50;;
27039;SDS011;14589;51.578;7.306;2023-07-22T10:54:33;6.22;;;2.53;;
27039;SDS011;14589;51.578;7.306;2023-07-22T10:57:27;2.80;;;1.95;;
27039;SDS011;14589;51.578;7.306;2023-07-22T10:59:58;4.20;;;1.90;;
27039;SDS011;14589;51.578;7.306;2023-07-22T11:02:29;2.90;;;1.83;;
27039;SDS011;14589;51.578;7.306;2023-07-22T11:07:33;6.30;;;2.55;;
27039;SDS011;14589;51.578;7.306;2023-07-22T11:10:15;3.92;;;2.05;;
27039;SDS011;14589;51.578;7.306;2023-07-22T11:12:47;4.43;;;1.42;;
27039;SDS011;14589;51.578;7.306;2023-07-22T11:15:18;4.57;;;2.03;;
27039;SDS011;14589;51.578;7.306;2023-07-22T11:17:49;3.63;;;1.70;;
27039;SDS011;14589;51.578;7.306;2023-07-22T11:20:20;3.20;;;2.35;;
27039;SDS011;14589;51.578;7.306;2023-07-22T11:22:51;4.78;;;1.65;;
27039;SDS011;14589;51.578;7.306;2023-07-22T11:25:22;2.17;;;1.42;;
27039;SDS011;14589;51.578;7.306;2023-07-22T11:27:52;4.10;;;2.22;;
27039;SDS011;14589;51.578;7.306;2023-07-22T11:30:24;3.85;;;2.38;;
27039;SDS011;14589;51.578;7.306;2023-07-22T11:32:57;2.67;;;1.00;;
27039;SDS011;14589;51.578;7.306;2023-07-22T11:35:28;3.55;;;1.73;;
27039;SDS011;14589;51.578;7.306;2023-07-22T11:38:05;3.28;;;1.52;;
27039;SDS011;14589;51.578;7.306;2023-07-22T11:40:35;2.65;;;1.00;;
27039;SDS011;14589;51.578;7.306;2023-07-22T11:43:06;3.60;;;1.30;;
27039;SDS011;14589;51.578;7.306;2023-07-22T11:45:38;4.53;;;1.60;;
27039;SDS011;14589;51.578;7.306;2023-07-22T11:48:09;2.55;;;1.52;;
27039;SDS011;14589;51.578;7.306;2023-07-22T11:50:41;3.95;;;1.95;;
27039;SDS011;14589;51.578;7.306;2023-07-22T11:53:11;2.45;;;1.33;;
27039;SDS011;14589;51.578;7.306;2023-07-22T11:55:42;1.92;;;1.30;;
27039;SDS011;14589;51.578;7.306;2023-07-22T11:58:13;2.17;;;1.20;;
27039;SDS011;14589;51.578;7.306;2023-07-22T12:00:44;2.03;;;1.08;;
27039;SDS011;14589;51.578;7.306;2023-07-22T12:03:14;4.47;;;1.77;;
27039;SDS011;14589;51.578;7.306;2023-07-22T12:05:44;2.15;;;1.15;;
27039;SDS011;14589;51.578;7.306;2023-07-22T12:08:15;3.35;;;0.82;;
27039;SDS011;14589;51.578;7.306;2023-07-22T12:10:55;1.85;;;1.20;;
27039;SDS011;14589;51.578;7.306;2023-07-22T12:13:26;4.07;;;1.23;;
27039;SDS011;14589;51.578;7.306;2023-07-22T12:16:00;1.63;;;1.52;;
27039;SDS011;14589;51.578;7.306;2023-07-22T12:18:44;2.72;;;1.10;;
27039;SDS011;14589;51.578;7.306;2023-07-22T12:21:15;2.25;;;1.35;;
27039;SDS011;14589;51.578;7.306;2023-07-22T12:23:46;1.30;;;0.70;;
27039;SDS011;14589;51.578;7.306;2023-07-22T12:26:16;2.92;;;1.33;;
27039;SDS011;14589;51.578;7.306;2023-07-22T12:28:46;1.05;;;0.50;;
27039;SDS011;14589;51.578;7.306;2023-07-22T12:31:17;1.60;;;0.85;;
27039;SDS011;14589;51.578;7.306;2023-07-22T12:33:47;1.88;;;1.00;;
27039;SDS011;14589;51.578;7.306;2023-07-22T12:36:17;2.13;;;1.05;;
27039;SDS011;14589;51.578;7.306;2023-07-22T12:38:48;3.70;;;0.93;;
27039;SDS011;14589;51.578;7.306;2023-07-22T12:41:18;2.90;;;0.98;;
27039;SDS011;14589;51.578;7.306;2023-07-22T12:43:48;2.55;;;0.73;;
27039;SDS011;14589;51.578;7.306;2023-07-22T12:46:19;2.78;;;1.20;;
27039;SDS011;14589;51.578;7.306;2023-07-22T12:48:49;1.65;;;1.02;;
27039;SDS011;14589;51.578;7.306;2023-07-22T12:51:20;1.00;;;0.70;;
27039;SDS011;14589;51.578;7.306;2023-07-22T12:53:50;2.92;;;1.35;;
27039;SDS011;14589;51.578;7.306;2023-07-22T12:56:20;1.42;;;0.98;;
27039;SDS011;14589;51.578;7.306;2023-07-22T12:58:51;2.80;;;0.95;;
27039;SDS011;14589;51.578;7.306;2023-07-22T13:01:21;2.33;;;0.88;;
27039;SDS011;14589;51.578;7.306;2023-07-22T13:03:51;1.75;;;0.32;;
27039;SDS011;14589;51.578;7.306;2023-07-22T13:06:22;1.80;;;0.80;;
27039;SDS011;14589;51.578;7.306;2023-07-22T13:08:52;1.92;;;0.93;;
27039;SDS011;14589;51.578;7.306;2023-07-22T13:11:23;1.67;;;0.75;;
27039;SDS011;14589;51.578;7.306;2023-07-22T13:13:53;1.88;;;1.05;;
27039;SDS011;14589;51.578;7.306;2023-07-22T13:16:23;3.92;;;0.65;;
27039;SDS011;14589;51.578;7.306;2023-07-22T13:18:54;2.60;;;0.80;;
27039;SDS011;14589;51.578;7.306;2023-07-22T13:21:24;3.88;;;1.20;;
27039;SDS011;14589;51.578;7.306;2023-07-22T13:23:55;1.73;;;0.77;;
27039;SDS011;14589;51.578;7.306;2023-07-22T13:26:25;1.73;;;0.80;;
27039;SDS011;14589;51.578;7.306;2023-07-22T13:28:56;2.40;;;1.13;;
27039;SDS011;14589;51.578;7.306;2023-07-22T13:31:26;1.65;;;1.13;;
27039;SDS011;14589;51.578;7.306;2023-07-22T13:33:56;2.58;;;0.95;;
27039;SDS011;14589;51.578;7.306;2023-07-22T13:36:27;2.42;;;1.05;;
27039;SDS011;14589;51.578;7.306;2023-07-22T13:38:57;1.92;;;0.70;;
27039;SDS011;14589;51.578;7.306;2023-07-22T13:41:28;1.92;;;0.50;;
27039;SDS011;14589;51.578;7.306;2023-07-22T13:43:58;3.55;;;1.27;;
27039;SDS011;14589;51.578;7.306;2023-07-22T13:46:28;3.85;;;1.10;;
27039;SDS011;14589;51.578;7.306;2023-07-22T13:48:59;4.55;;;1.77;;
27039;SDS011;14589;51.578;7.306;2023-07-22T13:51:29;3.00;;;1.67;;
27039;SDS011;14589;51.578;7.306;2023-07-22T13:53:59;4.72;;;2.10;;
27039;SDS011;14589;51.578;7.306;2023-07-22T13:56:30;3.97;;;2.28;;
27039;SDS011;14589;51.578;7.306;2023-07-22T13:59:00;2.28;;;1.20;;
27039;SDS011;14589;51.578;7.306;2023-07-22T14:01:31;3.45;;;1.25;;
27039;SDS011;14589;51.578;7.306;2023-07-22T14:04:01;3.10;;;1.45;;
27039;SDS011;14589;51.578;7.306;2023-07-22T14:06:32;6.07;;;1.50;;
27039;SDS011;14589;51.578;7.306;2023-07-22T14:09:02;6.13;;;2.05;;
27039;SDS011;14589;51.578;7.306;2023-07-22T14:11:33;3.58;;;1.30;;
27039;SDS011;14589;51.578;7.306;2023-07-22T14:14:03;3.95;;;1.88;;
27039;SDS011;14589;51.578;7.306;2023-07-22T14:16:34;1.88;;;1.05;;
27039;SDS011;14589;51.578;7.306;2023-07-22T14:19:04;4.35;;;1.45;;
27039;SDS011;14589;51.578;7.306;2023-07-22T14:21:34;6.20;;;2.00;;
27039;SDS011;14589;51.578;7.306;2023-07-22T14:24:05;1.75;;;0.90;;
27039;SDS011;14589;51.578;7.306;2023-07-22T14:26:35;6.90;;;1.67;;
27039;SDS011;14589;51.578;7.306;2023-07-22T14:29:05;5.50;;;1.20;;
27039;SDS011;14589;51.578;7.306;2023-07-22T14:31:36;3.47;;;1.60;;
27039;SDS011;14589;51.578;7.306;2023-07-22T14:34:06;3.20;;;1.35;;
27039;SDS011;14589;51.578;7.306;2023-07-22T14:36:36;3.03;;;0.88;;
27039;SDS011;14589;51.578;7.306;2023-07-22T14:39:07;4.93;;;1.45;;
27039;SDS011;14589;51.578;7.306;2023-07-22T14:41:40;3.65;;;0.90;;
27039;SDS011;14589;51.578;7.306;2023-07-22T14:44:11;1.23;;;0.68;;
27039;SDS011;14589;51.578;7.306;2023-07-22T14:46:41;1.20;;;0.57;;
27039;SDS011;14589;51.578;7.306;2023-07-22T14:49:12;2.13;;;0.70;;
27039;SDS011;14589;51.578;7.306;2023-07-22T14:51:42;2.50;;;1.17;;
27039;SDS011;14589;51.578;7.306;2023-07-22T14:54:13;1.95;;;0.95;;
27039;SDS011;14589;51.578;7.306;2023-07-22T14:56:43;1.77;;;0.95;;
27039;SDS011;14589;51.578;7.306;2023-07-22T14:59:14;2.28;;;1.10;;
27039;SDS011;14589;51.578;7.306;2023-07-22T15:01:45;2.15;;;0.80;;
27039;SDS011;14589;51.578;7.306;2023-07-22T15:04:16;1.45;;;0.60;;
27039;SDS011;14589;51.578;7.306;2023-07-22T15:06:46;2.10;;;1.13;;
27039;SDS011;14589;51.578;7.306;2023-07-22T15:09:16;2.83;;;0.50;;
27039;SDS011;14589;51.578;7.306;2023-07-22T15:11:47;1.83;;;1.00;;
27039;SDS011;14589;51.578;7.306;2023-07-22T15:14:17;2.75;;;2.05;;
27039;SDS011;14589;51.578;7.306;2023-07-22T15:16:48;2.53;;;0.52;;
27039;SDS011;14589;51.578;7.306;2023-07-22T15:19:18;3.53;;;2.00;;
27039;SDS011;14589;51.578;7.306;2023-07-22T15:21:48;1.45;;;0.45;;
27039;SDS011;14589;51.578;7.306;2023-07-22T15:24:20;4.55;;;1.05;;